Covington, Iowa
Current Conditions -  °F | °C
As of 6:52 AM on Friday 24 Oct 2014 (Local Time) from KCID Reporting Station
Moderate Fog Moderate Fog  
Wind Chill: 41°   Ceiling: 100
Heat Index: 45°   Visibility: 0.12mi
Dew Point: 45°   Wind: 7mph
Humidity: 100%   Direction: 160°SSE
Pressure: 30.01"   Gusts: NA
Location:  42.0483°N, 91.7982°W
Report Text: KCID 241152Z 16006KT 1/8SM FG VV001 07/07 A3001 RMK AO2 SLP167 T00720072 10072 20056 58003
Loading
Personal Weather Stations






























Interactive Weather Map
Tropical Storm Tracking
New forecast layout! Learn more

10-Day Weather Forecast

Advertisements
Track Severe Weather on mobile